Time;durP1;ratioP1;P1;durP2;ratioP2;P2;SDS_P1;SDS_P2;PMS_P1;PMS_P2;Temp;Humidity;BMP_temperature;BMP_pressure;BME280_temperature;BME280_humidity;BME280_pressure;Samples;Min_cycle;Max_cycle;Signal;HPM_P1;HPM_P2
2022/09/08 03:41:07;;;;;;;25.30;23.70;;;18.50;99.90;;;;;;4896657;29;21243;-74
2022/09/08 03:43:34;;;;;;;26.73;25.33;;;18.50;99.90;;;;;;4895762;29;20490;-76
2022/09/08 03:46:01;;;;;;;27.50;26.00;;;18.50;99.90;;;;;;4895699;29;20459;-76
2022/09/08 03:48:28;;;;;;;27.27;25.53;;;18.40;99.90;;;;;;4895772;29;20479;-74
2022/09/08 03:50:55;;;;;;;27.67;26.07;;;18.40;99.90;;;;;;4895636;29;20451;-75
2022/09/08 03:53:21;;;;;;;31.80;28.17;;;18.40;99.90;;;;;;4895437;29;20638;-74
2022/09/08 03:55:48;;;;;;;28.97;27.13;;;18.40;99.90;;;;;;4895274;29;20451;-74
2022/09/08 03:58:16;;;;;;;29.40;27.70;;;18.40;99.90;;;;;;4895386;29;20459;-76
2022/09/08 04:00:43;;;;;;;29.90;28.23;;;18.30;99.90;;;;;;4893115;29;20451;-74
2022/09/08 04:03:09;;;;;;;30.87;29.07;;;18.30;99.90;;;;;;4895178;29;20491;-76
2022/09/08 04:05:38;;;;;;;31.07;29.17;;;18.30;99.90;;;;;;4895162;29;20450;-76
2022/09/08 04:08:04;;;;;;;32.10;30.30;;;18.30;99.90;;;;;;4892995;29;20463;-76
2022/09/08 04:10:31;;;;;;;31.93;30.13;;;18.20;99.90;;;;;;4895255;29;20940;-76
2022/09/08 04:12:58;;;;;;;31.40;29.60;;;18.20;99.90;;;;;;4895397;29;20939;-74
2022/09/08 04:15:26;;;;;;;31.37;29.47;;;18.10;99.90;;;;;;4895125;29;20963;-75
2022/09/08 04:17:53;;;;;;;32.57;30.70;;;18.10;99.90;;;;;;4895221;29;20455;-76
2022/09/08 04:20:19;;;;;;;32.33;30.33;;;18.00;99.90;;;;;;4895174;29;20447;-75
2022/09/08 04:22:46;;;;;;;32.27;30.33;;;18.00;99.90;;;;;;4895029;29;20483;-75
2022/09/08 04:25:13;;;;;;;31.50;29.60;;;18.00;99.90;;;;;;4895355;29;20460;-75
2022/09/08 04:27:40;;;;;;;31.90;30.10;;;18.00;99.90;;;;;;4894755;29;20448;-75
2022/09/08 04:30:08;;;;;;;32.57;30.73;;;18.00;99.90;;;;;;4894812;29;20532;-76
2022/09/08 04:32:38;;;;;;;33.20;31.30;;;18.00;99.90;;;;;;4893866;29;20436;-76
2022/09/08 04:35:05;;;;;;;32.63;30.63;;;18.00;99.90;;;;;;4892553;29;20451;-76
2022/09/08 04:37:32;;;;;;;33.63;31.50;;;17.80;99.90;;;;;;4894634;29;20995;-76
2022/09/08 04:39:59;;;;;;;32.90;30.77;;;18.00;99.90;;;;;;4884454;29;20487;-75
2022/09/08 04:42:25;;;;;;;32.60;30.60;;;17.90;99.90;;;;;;4885927;29;20573;-76
2022/09/08 04:44:52;;;;;;;34.67;32.67;;;17.90;99.90;;;;;;4885824;29;20459;-76
2022/09/08 04:47:19;;;;;;;34.87;32.80;;;17.90;99.90;;;;;;4884207;29;20445;-77
2022/09/08 04:49:48;;;;;;;34.97;32.87;;;17.80;99.90;;;;;;4885968;29;20942;-75
2022/09/08 04:52:15;;;;;;;31.80;29.70;;;17.80;99.90;;;;;;4886003;29;20453;-75
2022/09/08 04:54:42;;;;;;;34.33;32.33;;;17.80;99.90;;;;;;4887143;29;20504;-75
2022/09/08 04:57:09;;;;;;;35.30;33.10;;;17.70;99.90;;;;;;4885087;29;20451;-75
2022/09/08 04:59:36;;;;;;;33.47;31.47;;;17.70;99.90;;;;;;4886034;29;20456;-74
2022/09/08 05:02:03;;;;;;;33.83;31.80;;;17.60;99.90;;;;;;4884119;29;20484;-74
2022/09/08 05:04:29;;;;;;;33.60;31.60;;;17.60;99.90;;;;;;4885250;29;20447;-74
2022/09/08 05:06:57;;;;;;;36.90;34.80;;;17.60;99.90;;;;;;4885890;29;20979;-74
2022/09/08 05:09:24;;;;;;;34.70;32.70;;;17.70;99.90;;;;;;4886593;29;20820;-74
2022/09/08 05:11:51;;;;;;;33.00;31.10;;;17.60;99.90;;;;;;4894500;29;20458;-75
2022/09/08 05:14:18;;;;;;;32.33;30.40;;;17.60;99.90;;;;;;4894519;29;20455;-74
2022/09/08 05:16:44;;;;;;;31.43;29.63;;;17.60;99.90;;;;;;4894802;29;20459;-74
2022/09/08 05:19:12;;;;;;;33.80;31.80;;;17.60;99.90;;;;;;4894601;29;20539;-74
2022/09/08 05:21:40;;;;;;;33.30;31.30;;;17.60;99.90;;;;;;4894346;29;20800;-74
2022/09/08 05:24:08;;;;;;;33.30;31.40;;;17.60;99.90;;;;;;4894239;29;20812;-74
2022/09/08 05:26:35;;;;;;;33.13;31.23;;;17.60;99.90;;;;;;4894306;29;21199;-73
2022/09/08 05:29:03;;;;;;;33.63;31.80;;;17.60;99.90;;;;;;4894108;29;20466;-75
2022/09/08 05:31:30;;;;;;;34.93;32.60;;;17.70;99.90;;;;;;4894404;29;20463;-74
2022/09/08 05:33:58;;;;;;;34.27;32.27;;;17.70;99.90;;;;;;4894679;29;20966;-75
2022/09/08 05:36:27;;;;;;;35.00;32.90;;;17.70;99.90;;;;;;4894428;29;20562;-74
2022/09/08 05:38:55;;;;;;;34.07;32.13;;;17.70;99.90;;;;;;4894031;29;20777;-74
2022/09/08 05:41:24;;;;;;;34.20;32.20;;;17.70;99.90;;;;;;4893886;29;20494;-74
2022/09/08 05:43:55;;;;;;;33.83;31.93;;;17.60;99.90;;;;;;4893852;29;20495;-74
2022/09/08 05:46:25;;;;;;;34.50;32.50;;;17.60;99.90;;;;;;4894006;29;20518;-74
2022/09/08 05:48:52;;;;;;;33.87;31.67;;;17.60;99.90;;;;;;4888080;29;20515;-74
2022/09/08 05:51:19;;;;;;;32.20;30.30;;;17.60;99.90;;;;;;4876411;29;20816;-74
2022/09/08 05:53:46;;;;;;;32.77;30.90;;;17.60;99.90;;;;;;4876490;29;20448;-74
2022/09/08 05:56:18;;;;;;;32.53;30.53;;;17.60;99.90;;;;;;4876657;29;20463;-74
2022/09/08 05:58:50;;;;;;;33.13;31.13;;;17.70;99.90;;;;;;4876541;29;20468;-74
2022/09/08 06:01:17;;;;;;;33.17;31.20;;;17.70;99.90;;;;;;4876111;29;20499;-74
2022/09/08 06:03:44;;;;;;;34.13;32.10;;;17.70;99.90;;;;;;4876595;29;20496;-74
2022/09/08 06:06:12;;;;;;;33.00;31.10;;;17.70;99.90;;;;;;4876537;29;20459;-75
2022/09/08 06:08:40;;;;;;;34.30;32.30;;;17.70;99.90;;;;;;4882662;29;20447;-75
2022/09/08 06:11:08;;;;;;;32.70;29.97;;;17.80;99.90;;;;;;4885074;29;20452;-75
2022/09/08 06:13:35;;;;;;;35.47;33.37;;;17.70;99.90;;;;;;4885696;29;20531;-75
2022/09/08 06:16:04;;;;;;;34.97;32.97;;;17.80;99.90;;;;;;4883965;29;20458;-75
2022/09/08 06:18:34;;;;;;;33.50;31.43;;;17.80;99.90;;;;;;4885035;29;20474;-75
2022/09/08 06:21:05;;;;;;;34.80;32.60;;;17.90;99.90;;;;;;4884270;29;20540;-76
2022/09/08 06:23:32;;;;;;;34.90;32.70;;;17.90;99.90;;;;;;4882978;29;20534;-76
2022/09/08 06:26:04;;;;;;;35.97;33.67;;;17.80;99.90;;;;;;4884512;29;20455;-75
2022/09/08 06:28:40;;;;;;;36.67;34.37;;;17.90;99.90;;;;;;4885074;29;20455;-75
2022/09/08 06:31:09;;;;;;;36.30;34.00;;;17.90;99.90;;;;;;4884709;29;20841;-73
2022/09/08 06:33:40;;;;;;;36.93;34.53;;;17.90;99.90;;;;;;4884778;29;20447;-75
2022/09/08 06:36:14;;;;;;;36.17;33.83;;;17.90;99.90;;;;;;4884573;29;20456;-75
2022/09/08 06:38:46;;;;;;;36.53;34.23;;;17.90;99.90;;;;;;4884875;29;20486;-75
2022/09/08 06:41:15;;;;;;;36.70;34.20;;;17.90;99.90;;;;;;4885439;29;20480;-75
2022/09/08 06:43:47;;;;;;;37.07;34.77;;;17.80;99.90;;;;;;4883640;29;21018;-76
2022/09/08 06:46:21;;;;;;;34.73;32.43;;;17.70;99.90;;;;;;4885724;29;20456;-75
2022/09/08 06:48:47;;;;;;;37.60;35.30;;;17.80;99.90;;;;;;4883035;29;20447;-76
2022/09/08 06:51:26;;;;;;;37.93;35.53;;;17.80;99.90;;;;;;4884867;29;21007;-75
2022/09/08 06:54:04;;;;;;;37.47;35.23;;;17.70;99.90;;;;;;4884652;29;20822;-76
2022/09/08 06:56:41;;;;;;;36.60;34.47;;;17.60;99.90;;;;;;4887512;29;20454;-74
2022/09/08 06:59:10;;;;;;;34.87;32.77;;;17.60;99.90;;;;;;4888584;29;20462;-75
2022/09/08 07:01:45;;;;;;;39.00;36.80;;;17.60;99.90;;;;;;4888590;29;20448;-75
2022/09/08 07:04:29;;;;;;;36.17;34.17;;;17.50;99.90;;;;;;4888504;29;20479;-75
2022/09/08 07:07:02;;;;;;;34.13;32.23;;;17.50;99.90;;;;;;4888710;29;20963;-76
2022/09/08 07:09:38;;;;;;;34.67;32.77;;;17.60;99.90;;;;;;4888577;29;20443;-75
2022/09/08 07:12:21;;;;;;;32.13;30.53;;;17.60;99.90;;;;;;4888374;29;20518;-75
2022/09/08 07:15:08;;;;;;;32.50;30.90;;;17.60;99.90;;;;;;4888140;29;20447;-75
2022/09/08 07:17:41;;;;;;;29.57;28.17;;;17.40;99.90;;;;;;4888104;29;20951;-74
2022/09/08 07:20:10;;;;;;;29.60;28.30;;;17.60;99.90;;;;;;4887949;29;20448;-75
2022/09/08 07:22:43;;;;;;;26.47;25.27;;;17.60;99.90;;;;;;4887913;29;20459;-75
2022/09/08 07:25:18;;;;;;;26.13;25.03;;;17.70;99.90;;;;;;4887954;29;20451;-74
2022/09/08 07:27:48;;;;;;;26.40;25.37;;;17.70;99.90;;;;;;4885973;29;20455;-74
2022/09/08 07:30:18;;;;;;;24.87;23.77;;;17.80;99.90;;;;;;4882516;29;20467;-74
2022/09/08 07:32:50;;;;;;;23.90;22.90;;;18.10;99.90;;;;;;4881016;29;20455;-75
2022/09/08 07:35:26;;;;;;;23.67;22.77;;;18.30;99.90;;;;;;4887741;29;20451;-75
2022/09/08 07:37:55;;;;;;;22.27;21.47;;;18.60;99.90;;;;;;4886948;29;20991;-73
2022/09/08 07:40:31;;;;;;;20.90;20.10;;;18.80;99.90;;;;;;4887273;29;20880;-75
2022/09/08 07:42:59;;;;;;;18.60;17.90;;;19.00;99.90;;;;;;4887865;29;20578;-74
2022/09/08 07:45:35;;;;;;;17.67;16.97;;;19.10;99.90;;;;;;4886441;29;20456;-73
2022/09/08 07:48:11;;;;;;;16.23;15.63;;;19.30;99.90;;;;;;4887505;29;20447;-74
2022/09/08 07:50:57;;;;;;;15.10;14.50;;;19.40;99.90;;;;;;4887325;29;20450;-75
2022/09/08 07:53:39;;;;;;;15.57;14.97;;;19.70;99.90;;;;;;4887699;29;21011;-74
2022/09/08 07:56:14;;;;;;;15.43;14.67;;;19.90;99.90;;;;;;4887252;29;20832;-74
2022/09/08 07:58:47;;;;;;;14.80;14.20;;;20.70;99.90;;;;;;4885426;29;20463;-74
2022/09/08 08:01:23;;;;;;;14.97;14.20;;;22.30;99.90;;;;;;4885857;29;20451;-73
2022/09/08 08:04:00;;;;;;;14.10;13.60;;;23.10;99.90;;;;;;4887071;29;20494;-73
2022/09/08 08:06:36;;;;;;;14.53;13.83;;;24.10;99.90;;;;;;4887540;29;20462;-73
2022/09/08 08:09:12;;;;;;;14.73;14.13;;;24.00;99.90;;;;;;4887003;29;20447;-72
2022/09/08 08:11:47;;;;;;;13.23;12.83;;;23.60;99.90;;;;;;4886839;29;20955;-73
2022/09/08 08:14:23;;;;;;;13.70;13.20;;;23.40;99.90;;;;;;4886841;29;20476;-73
2022/09/08 08:16:59;;;;;;;13.60;13.10;;;23.40;99.90;;;;;;4886912;29;20596;-72
2022/09/08 08:19:53;;;;;;;13.40;12.80;;;24.20;99.90;;;;;;4885295;29;20888;-74
2022/09/08 08:22:30;;;;;;;13.17;12.67;;;25.10;99.90;;;;;;4886822;29;20530;-74
2022/09/08 08:25:05;;;;;;;13.90;13.40;;;26.30;99.90;;;;;;4891674;29;20839;-74
2022/09/08 08:27:42;;;;;;;13.97;13.57;;;27.00;99.00;;;;;;4895652;29;20455;-74
2022/09/08 08:30:19;;;;;;;13.50;12.87;;;26.60;97.00;;;;;;4893648;29;20470;-74
2022/09/08 08:32:53;;;;;;;13.80;13.20;;;25.40;99.90;;;;;;4886547;29;20443;-75
2022/09/08 08:35:27;;;;;;;13.33;12.93;;;25.30;99.90;;;;;;4886371;29;20626;-75
2022/09/08 08:37:54;;;;;;;13.83;13.33;;;25.50;99.90;;;;;;4885916;29;20559;-75
2022/09/08 08:40:46;;;;;;;13.83;13.33;;;26.60;98.40;;;;;;4884201;29;20490;-75
2022/09/08 08:43:35;;;;;;;13.90;13.43;;;28.00;95.90;;;;;;4888605;29;20902;-75
2022/09/08 08:46:12;;;;;;;13.27;12.87;;;28.60;93.10;;;;;;4886599;29;20820;-75
2022/09/08 08:48:56;;;;;;;13.10;12.60;;;28.60;90.90;;;;;;4888261;29;20467;-76
2022/09/08 08:51:46;;;;;;;13.40;13.00;;;28.60;90.90;;;;;;4890392;29;20459;-73
2022/09/08 08:54:39;;;;;;;13.20;12.80;;;27.60;92.40;;;;;;4896373;29;20451;-74
2022/09/08 08:57:22;;;;;;;13.70;13.03;;;26.60;95.10;;;;;;4887240;29;20512;-74
2022/09/08 09:00:08;;;;;;;13.97;12.93;;;26.10;95.80;;;;;;4885021;29;20448;-74
2022/09/08 09:03:16;;;;;;;13.70;13.20;;;25.30;96.80;;;;;;4895563;29;20823;-75
2022/09/08 09:05:54;;;;;;;14.07;13.47;;;25.30;96.30;;;;;;4895945;29;20462;-75
2022/09/08 09:08:49;;;;;;;12.87;12.47;;;25.30;98.20;;;;;;4895584;29;20459;-75
2022/09/08 09:11:59;;;;;;;13.67;13.17;;;26.20;95.60;;;;;;4895336;29;20882;-74
2022/09/08 09:14:50;;;;;;;13.80;13.20;;;25.90;95.20;;;;;;4894174;29;20482;-75
2022/09/08 09:17:37;;;;;;;13.10;12.60;;;26.10;95.40;;;;;;4895622;29;20447;-75
2022/09/08 09:20:28;;;;;;;13.67;13.17;;;25.90;95.50;;;;;;4895153;29;20463;-75
2022/09/08 09:22:57;;;;;;;13.80;13.40;;;25.40;95.40;;;;;;4895335;29;20455;-75
2022/09/08 09:25:34;;;;;;;13.20;12.50;;;25.80;95.70;;;;;;4895268;29;20458;-75
2022/09/08 09:28:25;;;;;;;13.10;12.67;;;26.40;94.60;;;;;;4895554;29;20478;-75
2022/09/08 09:31:12;;;;;;;13.17;12.67;;;27.10;92.90;;;;;;4895249;29;20927;-75
2022/09/08 09:34:00;;;;;;;13.23;12.83;;;26.00;93.40;;;;;;4895230;29;20447;-76
2022/09/08 09:36:52;;;;;;;14.40;13.40;;;25.30;95.40;;;;;;4895253;29;20455;-75
2022/09/08 09:39:32;;;;;;;13.00;12.60;;;24.80;95.20;;;;;;4891842;29;20495;-75
2022/09/08 09:42:21;;;;;;;13.53;13.07;;;24.20;97.30;;;;;;4884536;29;20448;-74
2022/09/08 09:45:07;;;;;;;13.30;12.70;;;23.50;98.10;;;;;;4876205;29;20492;-74
2022/09/08 09:48:04;;;;;;;13.20;12.80;;;23.10;99.80;;;;;;4883452;29;20487;-74
2022/09/08 09:50:56;;;;;;;12.43;11.87;;;23.10;99.40;;;;;;4886514;29;20892;-76
2022/09/08 09:53:45;;;;;;;12.43;11.93;;;22.80;99.90;;;;;;4876045;29;20464;-74
2022/09/08 09:56:44;;;;;;;11.90;11.50;;;23.20;99.50;;;;;;4876411;29;20969;-73
2022/09/08 09:59:44;;;;;;;12.00;11.60;;;23.60;98.90;;;;;;4876280;29;20460;-74
2022/09/08 10:02:44;;;;;;;12.27;11.87;;;24.30;96.30;;;;;;4867595;29;20467;-71
2022/09/08 10:05:45;;;;;;;12.43;12.03;;;24.80;96.00;;;;;;4876033;29;20503;-72
2022/09/08 10:08:42;;;;;;;13.00;12.60;;;25.40;95.10;;;;;;4863505;29;20448;-72
2022/09/08 10:11:44;;;;;;;13.40;12.90;;;25.10;95.00;;;;;;4856860;29;20468;-72
2022/09/08 10:14:50;;;;;;;13.77;12.90;;;25.80;95.20;;;;;;4867627;29;20462;-72
2022/09/08 10:17:55;;;;;;;13.60;13.00;;;28.10;90.70;;;;;;4875709;29;20487;-72
2022/09/08 10:21:18;;;;;;;13.90;13.40;;;30.60;80.40;;;;;;4875705;29;20723;-73
2022/09/08 10:24:14;;;;;;;12.93;12.40;;;30.30;77.50;;;;;;4804585;29;20498;-72
2022/09/08 10:27:06;;;;;;;13.80;13.30;;;28.80;82.50;;;;;;4875417;29;20460;-71
2022/09/08 10:30:03;;;;;;;13.30;12.90;;;27.70;87.30;;;;;;4874937;29;20456;-75
2022/09/08 10:32:58;;;;;;;13.53;13.03;;;26.90;90.10;;;;;;4875941;29;20456;-72
2022/09/08 10:35:39;;;;;;;13.03;12.53;;;26.40;91.10;;;;;;4875592;29;20460;-72
2022/09/08 10:38:44;;;;;;;12.40;12.00;;;25.90;93.00;;;;;;4875509;29;20953;-72
2022/09/08 10:41:24;;;;;;;12.90;12.50;;;25.40;93.00;;;;;;4875571;29;20492;-72
2022/09/08 10:44:14;;;;;;;12.83;12.43;;;24.80;94.50;;;;;;4875473;29;20499;-72
2022/09/08 10:47:04;;;;;;;12.93;12.43;;;24.30;95.60;;;;;;4875403;29;20468;-73
2022/09/08 10:49:53;;;;;;;13.57;12.77;;;23.90;96.60;;;;;;4875635;29;20866;-73
2022/09/08 10:52:30;;;;;;;12.67;12.27;;;24.00;96.70;;;;;;4875510;29;20859;-72
2022/09/08 10:55:28;;;;;;;13.07;12.57;;;24.40;96.20;;;;;;4876035;29;20874;-71
2022/09/08 10:58:18;;;;;;;12.70;12.30;;;24.50;95.80;;;;;;4875686;29;20511;-72
2022/09/08 11:00:56;;;;;;;12.67;12.27;;;24.70;95.60;;;;;;4875966;29;20495;-71
2022/09/08 11:03:49;;;;;;;12.37;11.97;;;24.70;96.00;;;;;;4875687;29;20546;-71
2022/09/08 11:06:26;;;;;;;13.07;12.67;;;24.50;94.90;;;;;;4875879;29;20460;-72
2022/09/08 11:09:17;;;;;;;13.60;13.10;;;24.30;94.40;;;;;;4875568;29;20452;-72
2022/09/08 11:12:14;;;;;;;14.03;13.43;;;24.00;95.50;;;;;;4875903;29;20456;-71
2022/09/08 11:15:15;;;;;;;13.80;13.30;;;23.90;95.90;;;;;;4875664;29;20462;-72
2022/09/08 11:17:46;;;;;;;14.17;13.50;;;23.90;95.20;;;;;;4875924;29;20448;-72
2022/09/08 11:20:24;;;;;;;13.53;13.03;;;23.80;96.30;;;;;;4875673;29;20460;-72
2022/09/08 11:23:15;;;;;;;14.13;13.43;;;23.50;96.20;;;;;;4875430;29;20706;-72
2022/09/08 11:25:58;;;;;;;14.30;13.50;;;23.50;96.50;;;;;;4875806;29;20501;-72
2022/09/08 11:28:45;;;;;;;13.90;13.27;;;23.60;97.70;;;;;;4875497;29;20463;-71
2022/09/08 11:31:25;;;;;;;13.17;12.67;;;23.30;99.10;;;;;;4875632;29;20471;-72
2022/09/08 11:34:17;;;;;;;14.33;13.73;;;23.30;99.90;;;;;;4875506;29;20482;-73
2022/09/08 11:37:08;;;;;;;12.60;12.10;;;23.40;99.90;;;;;;4873968;29;20470;-73
2022/09/08 11:39:50;;;;;;;13.47;12.87;;;24.10;99.60;;;;;;4875067;29;20491;-73
2022/09/08 11:42:45;;;;;;;13.20;12.57;;;24.40;98.00;;;;;;4877273;29;20455;-73
2022/09/08 11:45:24;;;;;;;12.80;12.20;;;25.20;96.90;;;;;;4870650;29;21011;-73
2022/09/08 11:48:13;;;;;;;13.30;12.80;;;25.70;95.50;;;;;;4878855;29;20854;-73
2022/09/08 11:51:02;;;;;;;13.03;12.57;;;25.80;94.60;;;;;;4878758;29;20470;-75
2022/09/08 11:53:52;;;;;;;13.70;13.30;;;25.90;94.00;;;;;;4877404;29;20578;-73
2022/09/08 11:56:33;;;;;;;13.30;12.90;;;25.90;93.90;;;;;;4878668;29;21021;-75
2022/09/08 11:59:20;;;;;;;13.67;13.27;;;25.60;94.30;;;;;;4878948;29;20956;-71
2022/09/08 12:02:04;;;;;;;12.43;11.80;;;25.30;95.10;;;;;;4878509;29;20551;-72
2022/09/08 12:04:57;;;;;;;14.33;13.70;;;25.50;95.10;;;;;;4878471;29;20528;-71
2022/09/08 12:07:51;;;;;;;13.03;12.50;;;25.60;94.20;;;;;;4878355;29;20821;-73
2022/09/08 12:10:43;;;;;;;12.63;12.17;;;25.80;92.20;;;;;;4878345;29;20993;-73
2022/09/08 12:13:18;;;;;;;13.43;12.87;;;25.90;92.30;;;;;;4860834;29;20452;-73
2022/09/08 12:16:13;;;;;;;14.10;13.50;;;26.10;92.00;;;;;;4878603;29;20508;-73
2022/09/08 12:18:58;;;;;;;12.50;12.00;;;25.70;92.10;;;;;;4878369;29;20456;-73
2022/09/08 12:21:54;;;;;;;12.97;12.37;;;25.70;92.00;;;;;;4878334;29;20470;-76
2022/09/08 12:24:49;;;;;;;14.83;14.33;;;25.50;92.30;;;;;;4878058;29;20500;-76
2022/09/08 12:27:36;;;;;;;14.40;13.87;;;24.80;95.50;;;;;;4878276;29;20463;-74
2022/09/08 12:30:12;;;;;;;13.90;13.30;;;24.10;97.20;;;;;;4877930;29;20471;-73
2022/09/08 12:33:20;;;;;;;13.90;13.30;;;23.40;99.50;;;;;;4877991;29;20539;-73
2022/09/08 12:35:50;;;;;;;12.40;11.70;;;23.50;99.90;;;;;;4877960;29;20466;-72
2022/09/08 12:38:48;;;;;;;12.50;12.10;;;23.90;98.90;;;;;;4877878;29;20521;-73
2022/09/08 12:41:30;;;;;;;12.97;12.37;;;24.30;98.40;;;;;;4871224;29;20492;-73
2022/09/08 12:44:08;;;;;;;12.37;11.87;;;24.40;98.90;;;;;;4878098;29;20452;-73
2022/09/08 12:46:45;;;;;;;12.93;12.43;;;24.30;99.90;;;;;;4877720;29;20665;-72
2022/09/08 12:49:38;;;;;;;12.57;12.07;;;24.10;99.90;;;;;;4877911;29;20848;-71
2022/09/08 12:52:18;;;;;;;12.40;12.00;;;24.50;99.30;;;;;;4877542;29;20965;-72
2022/09/08 12:54:58;;;;;;;13.10;12.60;;;26.30;95.50;;;;;;4877186;29;20463;-72
2022/09/08 12:57:46;;;;;;;13.70;13.10;;;27.90;92.00;;;;;;4877639;29;20563;-72
2022/09/08 13:00:17;;;;;;;13.43;13.03;;;29.30;88.00;;;;;;4877792;29;20463;-73
2022/09/08 13:03:17;;;;;;;13.77;13.27;;;30.00;83.40;;;;;;4877766;29;20460;-72
2022/09/08 13:06:05;;;;;;;13.20;12.80;;;29.90;80.20;;;;;;4874358;29;20846;-73
2022/09/08 13:08:47;;;;;;;12.50;12.10;;;30.10;79.00;;;;;;4877444;29;20460;-72
2022/09/08 13:11:39;;;;;;;13.00;12.60;;;30.10;75.10;;;;;;4877622;29;20448;-73
2022/09/08 13:14:09;;;;;;;12.80;12.30;;;29.10;76.20;;;;;;4877306;29;20456;-72
2022/09/08 13:16:51;;;;;;;12.87;12.37;;;28.00;79.80;;;;;;4877152;29;20482;-72
2022/09/08 13:19:26;;;;;;;12.00;11.50;;;27.10;82.60;;;;;;4877123;29;20472;-72
2022/09/08 13:22:16;;;;;;;12.63;12.13;;;26.30;83.40;;;;;;4877149;29;20459;-72
2022/09/08 13:24:51;;;;;;;13.07;12.40;;;26.50;83.80;;;;;;4877425;29;20515;-73
2022/09/08 13:27:31;;;;;;;13.00;12.50;;;26.60;81.90;;;;;;4877041;29;20479;-72
2022/09/08 13:30:05;;;;;;;12.73;12.33;;;26.00;84.30;;;;;;4877427;29;20456;-71
2022/09/08 13:33:00;;;;;;;11.97;11.57;;;25.70;84.00;;;;;;4876755;29;20519;-71
2022/09/08 13:35:58;;;;;;;12.30;11.90;;;25.90;84.10;;;;;;4877156;29;20919;-71
2022/09/08 13:38:53;;;;;;;12.27;11.77;;;25.90;83.80;;;;;;4876679;29;20803;-71
2022/09/08 13:41:36;;;;;;;12.60;12.10;;;26.00;82.60;;;;;;4876331;29;21100;-71
2022/09/08 13:44:24;;;;;;;12.67;12.17;;;26.20;83.60;;;;;;4876663;29;20456;-71
2022/09/08 13:47:04;;;;;;;12.97;12.47;;;26.80;82.30;;;;;;4876453;29;20444;-72
2022/09/08 13:49:54;;;;;;;12.60;12.20;;;28.10;79.30;;;;;;4876457;29;21350;-71
2022/09/08 13:52:49;;;;;;;13.17;12.67;;;29.50;73.20;;;;;;4876587;29;20976;-71
2022/09/08 13:55:34;;;;;;;12.80;12.30;;;29.80;70.90;;;;;;4876681;29;20468;-71
2022/09/08 13:58:36;;;;;;;12.80;12.30;;;30.30;66.80;;;;;;4876856;29;20464;-71
2022/09/08 14:01:27;;;;;;;13.20;12.53;;;30.30;66.90;;;;;;4874608;29;20948;-71
2022/09/08 14:03:57;;;;;;;12.57;12.17;;;29.70;66.50;;;;;;4876285;29;20451;-71
2022/09/08 14:06:35;;;;;;;12.90;12.30;;;28.70;66.50;;;;;;4876271;29;20596;-71
2022/09/08 14:09:09;;;;;;;13.37;12.80;;;28.30;68.40;;;;;;4876299;29;20456;-71
2022/09/08 14:11:46;;;;;;;13.80;13.07;;;28.10;70.60;;;;;;4876339;29;20790;-71
2022/09/08 14:14:38;;;;;;;13.17;12.57;;;27.70;72.30;;;;;;4876820;29;20467;-71
2022/09/08 14:17:21;;;;;;;13.53;13.03;;;27.00;74.10;;;;;;4882860;29;20479;-71
2022/09/08 14:19:56;;;;;;;16.27;15.57;;;26.30;77.20;;;;;;4885652;29;20595;-71
2022/09/08 14:22:34;;;;;;;13.03;12.53;;;25.70;78.30;;;;;;4885979;29;20462;-71
2022/09/08 14:25:13;;;;;;;14.20;13.70;;;25.60;78.90;;;;;;4886074;29;20479;-71
2022/09/08 14:27:55;;;;;;;13.60;13.20;;;25.30;77.60;;;;;;4886061;29;20451;-71
2022/09/08 14:30:24;;;;;;;14.10;13.33;;;25.40;79.10;;;;;;4886003;29;20856;-71
2022/09/08 14:33:12;;;;;;;13.90;13.20;;;25.50;79.40;;;;;;4885693;29;21044;-71
2022/09/08 14:35:45;;;;;;;12.80;12.30;;;25.30;78.10;;;;;;4885353;29;20462;-71
2022/09/08 14:38:55;;;;;;;13.83;12.57;;;24.90;77.00;;;;;;4885909;29;20475;-71
2022/09/08 14:41:35;;;;;;;12.80;12.40;;;24.90;78.80;;;;;;4885874;29;20704;-71
2022/09/08 14:44:17;;;;;;;12.83;12.43;;;25.00;79.80;;;;;;4885877;29;20446;-73
2022/09/08 14:46:52;;;;;;;12.30;11.70;;;25.10;79.60;;;;;;4885841;29;20510;-71
2022/09/08 14:49:48;;;;;;;13.50;12.80;;;25.30;79.30;;;;;;4885782;29;20450;-71
2022/09/08 14:52:26;;;;;;;12.90;12.40;;;25.40;79.50;;;;;;4881575;29;20468;-70
2022/09/08 14:55:16;;;;;;;11.67;11.27;;;25.40;79.80;;;;;;4885561;29;20454;-70
2022/09/08 14:57:45;;;;;;;13.30;12.60;;;25.20;80.30;;;;;;4885946;29;20476;-70
2022/09/08 15:00:20;;;;;;;12.80;12.30;;;25.10;81.10;;;;;;4891386;29;20460;-70
2022/09/08 15:02:56;;;;;;;12.60;12.00;;;24.90;81.80;;;;;;4894501;29;20458;-71
2022/09/08 15:05:27;;;;;;;13.23;12.73;;;25.00;81.70;;;;;;4894115;29;20491;-71
2022/09/08 15:07:56;;;;;;;13.03;12.40;;;25.00;82.50;;;;;;4894198;29;20893;-72
2022/09/08 15:10:34;;;;;;;12.03;11.53;;;25.00;83.50;;;;;;4894022;29;20493;-69
2022/09/08 15:13:17;;;;;;;12.20;11.80;;;25.00;83.70;;;;;;4894312;29;20470;-69
2022/09/08 15:15:45;;;;;;;12.20;11.70;;;25.00;83.90;;;;;;4893964;29;20463;-72
2022/09/08 15:18:28;;;;;;;12.20;11.70;;;24.80;83.90;;;;;;4897850;29;20490;-70
2022/09/08 15:21:15;;;;;;;12.93;12.40;;;24.90;85.30;;;;;;4897735;29;20501;-70
2022/09/08 15:23:47;;;;;;;13.70;13.20;;;24.90;85.00;;;;;;4897926;29;20522;-70
2022/09/08 15:26:22;;;;;;;13.43;12.83;;;24.70;83.80;;;;;;4897825;29;20495;-70
2022/09/08 15:29:18;;;;;;;13.60;13.10;;;24.40;85.70;;;;;;4897633;29;20533;-70
2022/09/08 15:31:49;;;;;;;12.53;11.90;;;24.00;86.60;;;;;;4897816;29;21007;-70
2022/09/08 15:34:21;;;;;;;12.70;12.03;;;23.80;88.00;;;;;;4897526;29;20462;-70
2022/09/08 15:36:57;;;;;;;13.27;12.53;;;23.60;88.70;;;;;;4897319;29;20463;-71
2022/09/08 15:39:30;;;;;;;15.53;14.03;;;23.30;89.80;;;;;;4897112;29;20494;-70
2022/09/08 15:42:23;;;;;;;12.93;12.23;;;23.30;89.10;;;;;;4897604;29;20455;-70
2022/09/08 15:44:54;;;;;;;12.60;11.80;;;23.40;89.80;;;;;;4897098;29;20725;-72
2022/09/08 15:47:31;;;;;;;12.47;12.00;;;23.60;88.70;;;;;;4897176;29;20815;-71
2022/09/08 15:50:10;;;;;;;12.97;12.30;;;23.80;87.70;;;;;;4897640;29;20461;-71
2022/09/08 15:53:06;;;;;;;11.63;10.50;;;23.70;87.40;;;;;;4897052;29;20458;-71
2022/09/08 15:55:51;;;;;;;12.17;11.37;;;23.70;87.20;;;;;;4897297;29;20455;-70
2022/09/08 15:58:28;;;;;;;12.27;11.80;;;23.70;87.60;;;;;;4896955;29;20458;-71
2022/09/08 16:01:00;;;;;;;12.30;11.60;;;23.80;87.40;;;;;;4897287;29;20447;-70
2022/09/08 16:03:41;;;;;;;12.70;11.87;;;23.80;86.70;;;;;;4895234;29;20459;-70
2022/09/08 16:06:17;;;;;;;13.23;12.73;;;23.70;86.90;;;;;;4894817;29;20581;-71
2022/09/08 16:08:51;;;;;;;12.63;12.00;;;23.70;86.90;;;;;;4897086;29;20851;-71
2022/09/08 16:11:35;;;;;;;11.77;11.20;;;23.50;87.30;;;;;;4883818;29;21024;-71
2022/09/08 16:14:12;;;;;;;12.03;11.53;;;23.50;88.10;;;;;;4894831;29;20495;-71
2022/09/08 16:16:51;;;;;;;11.60;11.20;;;23.40;87.90;;;;;;4913268;29;20454;-71
2022/09/08 16:19:20;;;;;;;11.57;11.10;;;23.30;88.40;;;;;;4878066;29;20551;-71
2022/09/08 16:22:02;;;;;;;13.00;12.30;;;23.10;89.20;;;;;;4891241;29;20460;-71
2022/09/08 16:24:41;;;;;;;12.37;11.87;;;23.10;89.90;;;;;;4915822;29;20463;-71
2022/09/08 16:27:44;;;;;;;13.07;12.40;;;23.00;90.20;;;;;;4906232;29;20486;-71
2022/09/08 16:30:41;;;;;;;11.70;10.93;;;22.90;90.10;;;;;;4900938;29;20959;-71
2022/09/08 16:33:23;;;;;;;12.27;11.77;;;22.90;90.30;;;;;;4886738;29;20479;-71
2022/09/08 16:36:00;;;;;;;11.90;11.50;;;22.90;90.20;;;;;;4894673;29;20463;-71
2022/09/08 16:38:33;;;;;;;11.90;11.50;;;22.90;90.50;;;;;;4896629;29;20954;-71
2022/09/08 16:41:10;;;;;;;12.27;11.67;;;22.80;90.50;;;;;;4896451;29;20479;-71
2022/09/08 16:43:42;;;;;;;12.23;11.77;;;22.80;90.80;;;;;;4896211;29;20450;-71
2022/09/08 16:46:21;;;;;;;11.67;11.27;;;22.80;90.80;;;;;;4896095;29;20495;-71
2022/09/08 16:48:56;;;;;;;11.47;11.07;;;22.80;90.40;;;;;;4896304;29;20458;-71
2022/09/08 16:51:30;;;;;;;11.80;11.27;;;22.80;90.50;;;;;;4895959;29;20461;-71
2022/09/08 16:54:04;;;;;;;11.33;10.90;;;22.70;90.70;;;;;;4896370;29;20458;-71
2022/09/08 16:56:43;;;;;;;12.13;11.47;;;22.70;91.00;;;;;;4896350;29;20443;-71
2022/09/08 16:59:29;;;;;;;11.03;10.43;;;22.70;90.90;;;;;;4892104;29;20487;-71
2022/09/08 17:02:11;;;;;;;11.70;11.20;;;22.70;90.70;;;;;;4897074;29;20563;-71
2022/09/08 17:04:48;;;;;;;11.90;11.37;;;22.70;90.90;;;;;;4891784;29;20799;-71
2022/09/08 17:07:30;;;;;;;11.00;10.60;;;22.70;90.30;;;;;;4887473;29;20486;-72
2022/09/08 17:10:15;;;;;;;10.70;10.27;;;22.70;90.10;;;;;;4890370;29;20444;-72